Kezdőlap
METAR-TAF:

METAR-TAF

Repülőterek :

Walvis Bay, Namíbia

földrajzi szélesség: 22-58-59S, földrajzi hosszúság: 014-39E, magasság: 46 m

Jelenlegi meteorológiai megfigyelések

A jelentés 1 órával és 13 perccel ezelõtt készült, 21:00 UTC
Délnyugati szél 2 kt
Hőmérséklet 12°C
Páratartalom 76%
Légköri nyomás 1021 hPa

METAR: FYWB 192100Z AUTO 22002KT //// // ////// 12/08 Q1021

Idő: 00:13 (22:13 UTC)

Előrejelzés

A jelentés 6 órával és 13 perccel ezelõtt készült, 16:00 UTC
Az előrejelzés 19-én 18 óra UTC és 20-én 18 óra UTC között érvényes
Nyugati szél 15 kt
Látótávolság 10 km, vagy több
felhőtlen 1500 m magasságban, és nincs gomolyfelhõ
19-én 19 óra UTC és 19-én 21 óra UTC között fokozatosan kialakuló
Déli szél 5 kt

TAF: FYWB 191600Z 1918/2018 26015KT CAVOK BECMG 1919/1921 19005KT

Meteorológiai megfigyelések és előrejelzések több, mint 4000 repülőtéren (METAR és TAF jelentéseket).

A térképen piros és sárga pontok jelzik az elérhető meteorológiai állomásokat.

Mozgassa az egeret a pont fölött, hogy megjelenjen az állomás neve.

Azután kattintson az időjárási megfigyelések és előrejelzések megtekintéséhez.

A térkép megváltoztatása: kattintson a fekete keresztel jelölt zöld gombra ráközelítéshez, a vonallal jelölt zöld gombra távolításhoz, vagy a zöld nyilakra a szomszédos térképek eléréséhez.


METAR-TAF: